sensor_id;sensor_type;location;lat;lon;timestamp;P1;durP1;ratioP1;P2;durP2;ratioP2
44985;SDS011;30721;49.380;7.736;2024-02-15T00:00:18;4.05;;;3.00;;
44985;SDS011;30721;49.380;7.736;2024-02-15T00:02:43;5.43;;;3.35;;
44985;SDS011;30721;49.380;7.736;2024-02-15T00:05:12;4.78;;;3.15;;
44985;SDS011;30721;49.380;7.736;2024-02-15T00:07:38;4.57;;;2.95;;
44985;SDS011;30721;49.380;7.736;2024-02-15T00:10:03;6.65;;;3.20;;
44985;SDS011;30721;49.380;7.736;2024-02-15T00:12:29;4.40;;;3.17;;
44985;SDS011;30721;49.380;7.736;2024-02-15T00:14:55;5.60;;;3.63;;
44985;SDS011;30721;49.380;7.736;2024-02-15T00:17:23;5.97;;;3.22;;
44985;SDS011;30721;49.380;7.736;2024-02-15T00:19:49;4.03;;;3.17;;
44985;SDS011;30721;49.380;7.736;2024-02-15T00:22:15;4.13;;;3.00;;
44985;SDS011;30721;49.380;7.736;2024-02-15T00:24:40;4.90;;;2.80;;
44985;SDS011;30721;49.380;7.736;2024-02-15T00:27:06;5.07;;;3.38;;
44985;SDS011;30721;49.380;7.736;2024-02-15T00:29:32;4.70;;;3.08;;
44985;SDS011;30721;49.380;7.736;2024-02-15T00:31:59;6.97;;;3.10;;
44985;SDS011;30721;49.380;7.736;2024-02-15T00:34:25;6.50;;;3.00;;
44985;SDS011;30721;49.380;7.736;2024-02-15T00:36:51;5.00;;;3.22;;
44985;SDS011;30721;49.380;7.736;2024-02-15T00:39:17;6.25;;;3.38;;
44985;SDS011;30721;49.380;7.736;2024-02-15T00:41:43;4.50;;;3.47;;
44985;SDS011;30721;49.380;7.736;2024-02-15T00:44:10;7.32;;;3.25;;
44985;SDS011;30721;49.380;7.736;2024-02-15T00:46:36;3.70;;;2.58;;
44985;SDS011;30721;49.380;7.736;2024-02-15T00:49:02;5.68;;;2.83;;
44985;SDS011;30721;49.380;7.736;2024-02-15T00:51:28;3.45;;;2.65;;
44985;SDS011;30721;49.380;7.736;2024-02-15T00:53:54;5.18;;;2.75;;
44985;SDS011;30721;49.380;7.736;2024-02-15T00:56:19;3.35;;;3.05;;
44985;SDS011;30721;49.380;7.736;2024-02-15T00:58:44;4.90;;;2.72;;
44985;SDS011;30721;49.380;7.736;2024-02-15T01:01:10;3.75;;;2.45;;
44985;SDS011;30721;49.380;7.736;2024-02-15T01:03:36;4.38;;;2.70;;
44985;SDS011;30721;49.380;7.736;2024-02-15T01:06:01;3.47;;;2.20;;
44985;SDS011;30721;49.380;7.736;2024-02-15T01:08:27;3.13;;;2.53;;
44985;SDS011;30721;49.380;7.736;2024-02-15T01:10:52;3.13;;;2.45;;
44985;SDS011;30721;49.380;7.736;2024-02-15T01:13:18;3.55;;;2.30;;
44985;SDS011;30721;49.380;7.736;2024-02-15T01:15:44;4.10;;;2.50;;
44985;SDS011;30721;49.380;7.736;2024-02-15T01:18:11;4.05;;;3.05;;
44985;SDS011;30721;49.380;7.736;2024-02-15T01:20:36;3.83;;;2.88;;
44985;SDS011;30721;49.380;7.736;2024-02-15T01:23:02;4.63;;;2.33;;
44985;SDS011;30721;49.380;7.736;2024-02-15T01:25:27;7.25;;;3.38;;
44985;SDS011;30721;49.380;7.736;2024-02-15T01:27:53;3.70;;;2.80;;
44985;SDS011;30721;49.380;7.736;2024-02-15T01:30:19;5.07;;;2.80;;
44985;SDS011;30721;49.380;7.736;2024-02-15T01:32:44;7.65;;;3.25;;
44985;SDS011;30721;49.380;7.736;2024-02-15T01:35:09;4.07;;;2.60;;
44985;SDS011;30721;49.380;7.736;2024-02-15T01:37:35;4.20;;;2.60;;
44985;SDS011;30721;49.380;7.736;2024-02-15T01:40:01;3.60;;;2.95;;
44985;SDS011;30721;49.380;7.736;2024-02-15T01:42:27;4.07;;;2.80;;
44985;SDS011;30721;49.380;7.736;2024-02-15T01:44:52;4.00;;;3.33;;
44985;SDS011;30721;49.380;7.736;2024-02-15T01:47:18;4.22;;;2.50;;
44985;SDS011;30721;49.380;7.736;2024-02-15T01:49:46;5.18;;;2.85;;
44985;SDS011;30721;49.380;7.736;2024-02-15T01:52:13;3.38;;;2.25;;
44985;SDS011;30721;49.380;7.736;2024-02-15T01:54:41;5.95;;;3.53;;
44985;SDS011;30721;49.380;7.736;2024-02-15T01:57:06;6.15;;;2.78;;
44985;SDS011;30721;49.380;7.736;2024-02-15T01:59:32;3.80;;;2.22;;
44985;SDS011;30721;49.380;7.736;2024-02-15T02:01:57;3.75;;;2.47;;
44985;SDS011;30721;49.380;7.736;2024-02-15T02:04:23;4.38;;;2.72;;
44985;SDS011;30721;49.380;7.736;2024-02-15T02:06:48;5.35;;;2.70;;
44985;SDS011;30721;49.380;7.736;2024-02-15T02:09:14;4.05;;;2.78;;
44985;SDS011;30721;49.380;7.736;2024-02-15T02:11:40;4.20;;;2.50;;
44985;SDS011;30721;49.380;7.736;2024-02-15T02:14:11;4.30;;;2.53;;
44985;SDS011;30721;49.380;7.736;2024-02-15T02:16:37;3.92;;;2.17;;
44985;SDS011;30721;49.380;7.736;2024-02-15T02:19:04;3.85;;;2.47;;
44985;SDS011;30721;49.380;7.736;2024-02-15T02:21:34;4.40;;;2.50;;
44985;SDS011;30721;49.380;7.736;2024-02-15T02:24:02;3.95;;;2.58;;
44985;SDS011;30721;49.380;7.736;2024-02-15T02:26:31;4.15;;;2.63;;
44985;SDS011;30721;49.380;7.736;2024-02-15T02:28:57;4.57;;;2.17;;
44985;SDS011;30721;49.380;7.736;2024-02-15T02:31:24;3.97;;;2.30;;
44985;SDS011;30721;49.380;7.736;2024-02-15T02:33:51;2.50;;;2.10;;
44985;SDS011;30721;49.380;7.736;2024-02-15T02:36:17;3.97;;;2.33;;
44985;SDS011;30721;49.380;7.736;2024-02-15T02:38:43;3.47;;;2.20;;
44985;SDS011;30721;49.380;7.736;2024-02-15T02:41:10;5.72;;;2.35;;
44985;SDS011;30721;49.380;7.736;2024-02-15T02:43:39;2.83;;;2.13;;
44985;SDS011;30721;49.380;7.736;2024-02-15T02:46:05;4.95;;;2.20;;
44985;SDS011;30721;49.380;7.736;2024-02-15T02:48:31;4.10;;;2.20;;
44985;SDS011;30721;49.380;7.736;2024-02-15T02:50:56;2.10;;;1.88;;
44985;SDS011;30721;49.380;7.736;2024-02-15T02:53:22;1.90;;;1.70;;
44985;SDS011;30721;49.380;7.736;2024-02-15T02:55:48;4.65;;;2.35;;
44985;SDS011;30721;49.380;7.736;2024-02-15T02:58:14;3.15;;;2.10;;
44985;SDS011;30721;49.380;7.736;2024-02-15T03:00:39;4.13;;;2.10;;
44985;SDS011;30721;49.380;7.736;2024-02-15T03:03:05;3.97;;;2.53;;
44985;SDS011;30721;49.380;7.736;2024-02-15T03:05:30;3.85;;;2.40;;
44985;SDS011;30721;49.380;7.736;2024-02-15T03:07:56;3.10;;;1.92;;
44985;SDS011;30721;49.380;7.736;2024-02-15T03:10:21;3.65;;;1.90;;
44985;SDS011;30721;49.380;7.736;2024-02-15T03:12:48;3.30;;;2.00;;
44985;SDS011;30721;49.380;7.736;2024-02-15T03:15:14;2.38;;;1.90;;
44985;SDS011;30721;49.380;7.736;2024-02-15T03:17:40;2.78;;;1.88;;
44985;SDS011;30721;49.380;7.736;2024-02-15T03:20:07;3.45;;;1.80;;
44985;SDS011;30721;49.380;7.736;2024-02-15T03:22:56;3.42;;;2.15;;
44985;SDS011;30721;49.380;7.736;2024-02-15T03:25:22;2.10;;;1.77;;
44985;SDS011;30721;49.380;7.736;2024-02-15T03:27:53;3.45;;;2.53;;
44985;SDS011;30721;49.380;7.736;2024-02-15T03:30:19;3.88;;;1.92;;
44985;SDS011;30721;49.380;7.736;2024-02-15T03:32:46;2.83;;;2.00;;
44985;SDS011;30721;49.380;7.736;2024-02-15T03:35:13;3.63;;;1.92;;
44985;SDS011;30721;49.380;7.736;2024-02-15T03:37:40;4.40;;;2.53;;
44985;SDS011;30721;49.380;7.736;2024-02-15T03:40:07;3.30;;;2.10;;
44985;SDS011;30721;49.380;7.736;2024-02-15T03:42:33;4.32;;;1.90;;
44985;SDS011;30721;49.380;7.736;2024-02-15T03:45:04;3.65;;;2.00;;
44985;SDS011;30721;49.380;7.736;2024-02-15T03:47:31;4.25;;;2.00;;
44985;SDS011;30721;49.380;7.736;2024-02-15T03:49:58;5.97;;;2.08;;
44985;SDS011;30721;49.380;7.736;2024-02-15T03:52:24;5.10;;;2.80;;
44985;SDS011;30721;49.380;7.736;2024-02-15T03:54:49;3.35;;;1.75;;
44985;SDS011;30721;49.380;7.736;2024-02-15T03:57:15;4.38;;;1.90;;
44985;SDS011;30721;49.380;7.736;2024-02-15T03:59:42;2.55;;;1.60;;
44985;SDS011;30721;49.380;7.736;2024-02-15T04:02:07;3.13;;;1.60;;
44985;SDS011;30721;49.380;7.736;2024-02-15T04:04:37;3.17;;;1.80;;
44985;SDS011;30721;49.380;7.736;2024-02-15T04:07:06;2.67;;;1.55;;
44985;SDS011;30721;49.380;7.736;2024-02-15T04:09:32;2.33;;;1.80;;
44985;SDS011;30721;49.380;7.736;2024-02-15T04:11:58;2.88;;;1.65;;
44985;SDS011;30721;49.380;7.736;2024-02-15T04:14:23;4.05;;;1.90;;
44985;SDS011;30721;49.380;7.736;2024-02-15T04:16:49;2.00;;;1.52;;
44985;SDS011;30721;49.380;7.736;2024-02-15T04:19:14;2.83;;;1.63;;
44985;SDS011;30721;49.380;7.736;2024-02-15T04:21:40;3.75;;;2.00;;
44985;SDS011;30721;49.380;7.736;2024-02-15T04:24:06;3.08;;;1.58;;
44985;SDS011;30721;49.380;7.736;2024-02-15T04:26:31;3.10;;;1.70;;
44985;SDS011;30721;49.380;7.736;2024-02-15T04:28:57;2.47;;;1.50;;
44985;SDS011;30721;49.380;7.736;2024-02-15T04:31:23;3.50;;;1.60;;
44985;SDS011;30721;49.380;7.736;2024-02-15T04:33:54;2.78;;;1.73;;
44985;SDS011;30721;49.380;7.736;2024-02-15T04:36:21;4.38;;;2.10;;
44985;SDS011;30721;49.380;7.736;2024-02-15T04:38:50;3.90;;;1.80;;
44985;SDS011;30721;49.380;7.736;2024-02-15T04:41:16;3.83;;;1.60;;
44985;SDS011;30721;49.380;7.736;2024-02-15T04:43:46;2.83;;;1.92;;
44985;SDS011;30721;49.380;7.736;2024-02-15T04:46:12;4.15;;;1.92;;
44985;SDS011;30721;49.380;7.736;2024-02-15T04:48:39;2.78;;;1.60;;
44985;SDS011;30721;49.380;7.736;2024-02-15T04:51:07;2.22;;;1.55;;
44985;SDS011;30721;49.380;7.736;2024-02-15T04:53:32;4.70;;;1.67;;
44985;SDS011;30721;49.380;7.736;2024-02-15T04:55:58;6.75;;;1.70;;
44985;SDS011;30721;49.380;7.736;2024-02-15T04:58:26;3.88;;;2.00;;
44985;SDS011;30721;49.380;7.736;2024-02-15T05:00:54;3.55;;;1.85;;
44985;SDS011;30721;49.380;7.736;2024-02-15T05:03:24;3.35;;;1.42;;
44985;SDS011;30721;49.380;7.736;2024-02-15T05:05:49;2.67;;;1.83;;
44985;SDS011;30721;49.380;7.736;2024-02-15T05:08:15;4.95;;;1.77;;
44985;SDS011;30721;49.380;7.736;2024-02-15T05:10:40;3.75;;;2.20;;
44985;SDS011;30721;49.380;7.736;2024-02-15T05:13:06;2.72;;;1.70;;
44985;SDS011;30721;49.380;7.736;2024-02-15T05:15:31;2.65;;;2.13;;
44985;SDS011;30721;49.380;7.736;2024-02-15T05:17:58;2.13;;;1.45;;
44985;SDS011;30721;49.380;7.736;2024-02-15T05:20:26;4.60;;;1.95;;
44985;SDS011;30721;49.380;7.736;2024-02-15T05:22:52;3.80;;;1.70;;
44985;SDS011;30721;49.380;7.736;2024-02-15T05:25:19;3.33;;;1.90;;
44985;SDS011;30721;49.380;7.736;2024-02-15T05:27:55;2.90;;;1.70;;
44985;SDS011;30721;49.380;7.736;2024-02-15T05:30:20;3.40;;;1.50;;
44985;SDS011;30721;49.380;7.736;2024-02-15T05:32:45;3.50;;;1.50;;
44985;SDS011;30721;49.380;7.736;2024-02-15T05:35:11;5.20;;;1.75;;
44985;SDS011;30721;49.380;7.736;2024-02-15T05:37:37;3.08;;;1.70;;
44985;SDS011;30721;49.380;7.736;2024-02-15T05:40:03;2.75;;;1.70;;
44985;SDS011;30721;49.380;7.736;2024-02-15T05:42:32;2.80;;;1.40;;
44985;SDS011;30721;49.380;7.736;2024-02-15T05:44:59;2.83;;;1.63;;
44985;SDS011;30721;49.380;7.736;2024-02-15T05:47:52;3.60;;;2.00;;
44985;SDS011;30721;49.380;7.736;2024-02-15T05:50:18;1.40;;;1.27;;
44985;SDS011;30721;49.380;7.736;2024-02-15T05:52:46;4.45;;;1.38;;
44985;SDS011;30721;49.380;7.736;2024-02-15T05:55:13;2.78;;;1.65;;
44985;SDS011;30721;49.380;7.736;2024-02-15T05:57:43;2.20;;;1.40;;
44985;SDS011;30721;49.380;7.736;2024-02-15T06:00:08;2.15;;;1.30;;
44985;SDS011;30721;49.380;7.736;2024-02-15T06:02:34;2.28;;;1.15;;
44985;SDS011;30721;49.380;7.736;2024-02-15T06:05:00;1.85;;;1.40;;
44985;SDS011;30721;49.380;7.736;2024-02-15T06:07:32;1.98;;;1.60;;
44985;SDS011;30721;49.380;7.736;2024-02-15T06:10:01;4.70;;;2.10;;
44985;SDS011;30721;49.380;7.736;2024-02-15T06:12:31;3.20;;;1.48;;
44985;SDS011;30721;49.380;7.736;2024-02-15T06:14:57;3.03;;;1.48;;
44985;SDS011;30721;49.380;7.736;2024-02-15T06:17:22;2.60;;;1.50;;
44985;SDS011;30721;49.380;7.736;2024-02-15T06:19:47;4.47;;;1.70;;
44985;SDS011;30721;49.380;7.736;2024-02-15T06:22:13;2.17;;;1.52;;
44985;SDS011;30721;49.380;7.736;2024-02-15T06:24:39;2.80;;;1.80;;
44985;SDS011;30721;49.380;7.736;2024-02-15T06:27:06;2.83;;;2.00;;
44985;SDS011;30721;49.380;7.736;2024-02-15T06:29:32;3.22;;;1.70;;
44985;SDS011;30721;49.380;7.736;2024-02-15T06:32:16;4.80;;;1.73;;
44985;SDS011;30721;49.380;7.736;2024-02-15T06:35:00;2.97;;;1.63;;
44985;SDS011;30721;49.380;7.736;2024-02-15T06:37:44;3.45;;;2.13;;
44985;SDS011;30721;49.380;7.736;2024-02-15T06:40:28;2.40;;;1.70;;
44985;SDS011;30721;49.380;7.736;2024-02-15T06:42:53;2.88;;;1.88;;
44985;SDS011;30721;49.380;7.736;2024-02-15T06:45:19;4.43;;;1.60;;
44985;SDS011;30721;49.380;7.736;2024-02-15T06:47:44;2.72;;;1.45;;
44985;SDS011;30721;49.380;7.736;2024-02-15T06:50:13;4.57;;;1.83;;
44985;SDS011;30721;49.380;7.736;2024-02-15T06:52:39;2.92;;;1.45;;
44985;SDS011;30721;49.380;7.736;2024-02-15T06:55:06;3.72;;;1.58;;
44985;SDS011;30721;49.380;7.736;2024-02-15T06:57:35;2.13;;;1.27;;
44985;SDS011;30721;49.380;7.736;2024-02-15T07:00:02;5.25;;;1.40;;
44985;SDS011;30721;49.380;7.736;2024-02-15T07:02:29;2.20;;;1.40;;
44985;SDS011;30721;49.380;7.736;2024-02-15T07:04:55;1.85;;;1.20;;
44985;SDS011;30721;49.380;7.736;2024-02-15T07:07:20;1.48;;;1.33;;
44985;SDS011;30721;49.380;7.736;2024-02-15T07:09:47;3.15;;;1.60;;
44985;SDS011;30721;49.380;7.736;2024-02-15T07:12:12;2.53;;;1.58;;
44985;SDS011;30721;49.380;7.736;2024-02-15T07:14:37;3.60;;;1.48;;
44985;SDS011;30721;49.380;7.736;2024-02-15T07:17:03;2.72;;;1.25;;
44985;SDS011;30721;49.380;7.736;2024-02-15T07:19:29;2.90;;;1.50;;
44985;SDS011;30721;49.380;7.736;2024-02-15T07:21:58;2.58;;;1.63;;
44985;SDS011;30721;49.380;7.736;2024-02-15T07:24:23;3.63;;;1.60;;
44985;SDS011;30721;49.380;7.736;2024-02-15T07:26:51;2.72;;;1.42;;
44985;SDS011;30721;49.380;7.736;2024-02-15T07:29:19;2.72;;;1.20;;
44985;SDS011;30721;49.380;7.736;2024-02-15T07:31:46;3.03;;;1.40;;
44985;SDS011;30721;49.380;7.736;2024-02-15T07:34:11;3.15;;;1.35;;
44985;SDS011;30721;49.380;7.736;2024-02-15T07:36:37;2.53;;;1.60;;
44985;SDS011;30721;49.380;7.736;2024-02-15T07:39:04;6.05;;;1.95;;
44985;SDS011;30721;49.380;7.736;2024-02-15T07:41:29;2.83;;;1.42;;
44985;SDS011;30721;49.380;7.736;2024-02-15T07:43:56;2.78;;;1.10;;
44985;SDS011;30721;49.380;7.736;2024-02-15T07:46:23;3.28;;;1.55;;
44985;SDS011;30721;49.380;7.736;2024-02-15T07:48:49;2.60;;;1.50;;
44985;SDS011;30721;49.380;7.736;2024-02-15T07:51:16;5.03;;;1.40;;
44985;SDS011;30721;49.380;7.736;2024-02-15T07:53:43;3.92;;;1.55;;
44985;SDS011;30721;49.380;7.736;2024-02-15T07:56:09;1.42;;;1.10;;
44985;SDS011;30721;49.380;7.736;2024-02-15T07:58:38;3.17;;;1.17;;
44985;SDS011;30721;49.380;7.736;2024-02-15T08:01:04;2.28;;;1.38;;
44985;SDS011;30721;49.380;7.736;2024-02-15T08:03:30;2.63;;;2.20;;
44985;SDS011;30721;49.380;7.736;2024-02-15T08:05:56;1.75;;;1.13;;
44985;SDS011;30721;49.380;7.736;2024-02-15T08:08:21;1.70;;;1.02;;
44985;SDS011;30721;49.380;7.736;2024-02-15T08:10:46;5.10;;;1.58;;
44985;SDS011;30721;49.380;7.736;2024-02-15T08:13:13;3.00;;;1.10;;
44985;SDS011;30721;49.380;7.736;2024-02-15T08:15:40;3.03;;;1.40;;
44985;SDS011;30721;49.380;7.736;2024-02-15T08:18:05;2.65;;;1.30;;
44985;SDS011;30721;49.380;7.736;2024-02-15T08:20:34;2.03;;;1.30;;
44985;SDS011;30721;49.380;7.736;2024-02-15T08:22:59;2.97;;;1.10;;
44985;SDS011;30721;49.380;7.736;2024-02-15T08:25:25;4.05;;;1.10;;
44985;SDS011;30721;49.380;7.736;2024-02-15T08:27:50;2.83;;;1.15;;
44985;SDS011;30721;49.380;7.736;2024-02-15T08:30:16;1.13;;;0.88;;
44985;SDS011;30721;49.380;7.736;2024-02-15T08:32:42;2.58;;;1.33;;
44985;SDS011;30721;49.380;7.736;2024-02-15T08:35:09;2.85;;;0.90;;
44985;SDS011;30721;49.380;7.736;2024-02-15T08:37:35;3.15;;;1.10;;
44985;SDS011;30721;49.380;7.736;2024-02-15T08:40:05;2.20;;;1.42;;
44985;SDS011;30721;49.380;7.736;2024-02-15T08:42:42;1.25;;;0.95;;
44985;SDS011;30721;49.380;7.736;2024-02-15T08:45:08;1.45;;;1.15;;
44985;SDS011;30721;49.380;7.736;2024-02-15T08:47:37;2.47;;;1.13;;
44985;SDS011;30721;49.380;7.736;2024-02-15T08:50:04;2.08;;;0.70;;
44985;SDS011;30721;49.380;7.736;2024-02-15T08:52:30;1.88;;;0.90;;
44985;SDS011;30721;49.380;7.736;2024-02-15T08:54:55;2.33;;;1.10;;
44985;SDS011;30721;49.380;7.736;2024-02-15T08:57:22;1.10;;;0.70;;
44985;SDS011;30721;49.380;7.736;2024-02-15T08:59:48;3.03;;;1.35;;
44985;SDS011;30721;49.380;7.736;2024-02-15T09:02:14;2.00;;;1.00;;
44985;SDS011;30721;49.380;7.736;2024-02-15T09:04:39;1.45;;;0.90;;
44985;SDS011;30721;49.380;7.736;2024-02-15T09:07:06;1.83;;;0.80;;
44985;SDS011;30721;49.380;7.736;2024-02-15T09:09:32;1.60;;;0.85;;
44985;SDS011;30721;49.380;7.736;2024-02-15T09:12:00;2.70;;;1.30;;
44985;SDS011;30721;49.380;7.736;2024-02-15T09:14:31;1.70;;;0.80;;
44985;SDS011;30721;49.380;7.736;2024-02-15T09:16:59;3.72;;;0.82;;
44985;SDS011;30721;49.380;7.736;2024-02-15T09:19:25;1.58;;;0.70;;
44985;SDS011;30721;49.380;7.736;2024-02-15T09:21:50;2.83;;;1.00;;
44985;SDS011;30721;49.380;7.736;2024-02-15T09:24:15;1.48;;;0.90;;
44985;SDS011;30721;49.380;7.736;2024-02-15T09:26:41;2.25;;;1.00;;
44985;SDS011;30721;49.380;7.736;2024-02-15T09:29:07;1.33;;;0.80;;
44985;SDS011;30721;49.380;7.736;2024-02-15T09:31:33;2.80;;;0.90;;
44985;SDS011;30721;49.380;7.736;2024-02-15T09:34:00;2.83;;;0.90;;
44985;SDS011;30721;49.380;7.736;2024-02-15T09:36:25;1.38;;;0.73;;
44985;SDS011;30721;49.380;7.736;2024-02-15T09:38:53;1.73;;;1.00;;
44985;SDS011;30721;49.380;7.736;2024-02-15T09:41:19;0.95;;;0.63;;
44985;SDS011;30721;49.380;7.736;2024-02-15T09:43:44;2.20;;;1.08;;
44985;SDS011;30721;49.380;7.736;2024-02-15T09:46:10;1.20;;;0.63;;
44985;SDS011;30721;49.380;7.736;2024-02-15T09:48:35;1.33;;;0.85;;
44985;SDS011;30721;49.380;7.736;2024-02-15T09:51:02;2.10;;;1.05;;
44985;SDS011;30721;49.380;7.736;2024-02-15T09:53:28;2.50;;;1.17;;
44985;SDS011;30721;49.380;7.736;2024-02-15T09:55:54;1.27;;;0.82;;
44985;SDS011;30721;49.380;7.736;2024-02-15T09:58:21;2.25;;;0.82;;
44985;SDS011;30721;49.380;7.736;2024-02-15T10:00:48;2.33;;;1.38;;
44985;SDS011;30721;49.380;7.736;2024-02-15T10:03:16;2.58;;;0.80;;
44985;SDS011;30721;49.380;7.736;2024-02-15T10:05:43;1.27;;;0.70;;
44985;SDS011;30721;49.380;7.736;2024-02-15T10:08:09;2.88;;;0.90;;
44985;SDS011;30721;49.380;7.736;2024-02-15T10:10:36;1.33;;;1.10;;
44985;SDS011;30721;49.380;7.736;2024-02-15T10:13:01;1.90;;;0.80;;
44985;SDS011;30721;49.380;7.736;2024-02-15T10:15:30;2.28;;;0.95;;
44985;SDS011;30721;49.380;7.736;2024-02-15T10:18:01;3.28;;;1.17;;
44985;SDS011;30721;49.380;7.736;2024-02-15T10:20:32;1.92;;;0.70;;
44985;SDS011;30721;49.380;7.736;2024-02-15T10:25:26;1.38;;;0.73;;
44985;SDS011;30721;49.380;7.736;2024-02-15T10:27:53;1.42;;;0.93;;
44985;SDS011;30721;49.380;7.736;2024-02-15T10:30:33;1.23;;;0.70;;
44985;SDS011;30721;49.380;7.736;2024-02-15T10:32:59;2.35;;;0.70;;
44985;SDS011;30721;49.380;7.736;2024-02-15T10:35:24;1.05;;;0.70;;
44985;SDS011;30721;49.380;7.736;2024-02-15T10:37:50;1.08;;;0.93;;
44985;SDS011;30721;49.380;7.736;2024-02-15T10:40:22;1.33;;;0.95;;
44985;SDS011;30721;49.380;7.736;2024-02-15T10:42:48;1.20;;;0.77;;
44985;SDS011;30721;49.380;7.736;2024-02-15T10:45:16;0.70;;;0.60;;
44985;SDS011;30721;49.380;7.736;2024-02-15T10:47:45;2.35;;;1.08;;
44985;SDS011;30721;49.380;7.736;2024-02-15T10:50:12;1.30;;;0.63;;
44985;SDS011;30721;49.380;7.736;2024-02-15T10:52:43;1.58;;;0.70;;
44985;SDS011;30721;49.380;7.736;2024-02-15T10:55:13;2.33;;;0.85;;
44985;SDS011;30721;49.380;7.736;2024-02-15T10:57:45;1.45;;;0.73;;
44985;SDS011;30721;49.380;7.736;2024-02-15T11:00:12;1.30;;;1.05;;
44985;SDS011;30721;49.380;7.736;2024-02-15T11:03:00;0.98;;;0.65;;
44985;SDS011;30721;49.380;7.736;2024-02-15T11:05:29;1.00;;;0.70;;
44985;SDS011;30721;49.380;7.736;2024-02-15T11:07:57;0.95;;;0.63;;
44985;SDS011;30721;49.380;7.736;2024-02-15T11:10:23;3.72;;;0.82;;
44985;SDS011;30721;49.380;7.736;2024-02-15T11:12:50;1.75;;;0.98;;
44985;SDS011;30721;49.380;7.736;2024-02-15T11:15:39;1.02;;;0.75;;
44985;SDS011;30721;49.380;7.736;2024-02-15T11:18:06;1.92;;;1.17;;
44985;SDS011;30721;49.380;7.736;2024-02-15T11:23:01;1.55;;;0.82;;
44985;SDS011;30721;49.380;7.736;2024-02-15T11:25:35;1.48;;;0.90;;
44985;SDS011;30721;49.380;7.736;2024-02-15T11:30:48;1.00;;;0.73;;
44985;SDS011;30721;49.380;7.736;2024-02-15T11:33:33;2.28;;;0.70;;
44985;SDS011;30721;49.380;7.736;2024-02-15T11:38:29;1.13;;;0.60;;
44985;SDS011;30721;49.380;7.736;2024-02-15T11:46:08;2.38;;;0.75;;
44985;SDS011;30721;49.380;7.736;2024-02-15T11:48:36;1.83;;;0.95;;
44985;SDS011;30721;49.380;7.736;2024-02-15T11:51:04;1.48;;;0.75;;
44985;SDS011;30721;49.380;7.736;2024-02-15T11:53:31;1.38;;;0.55;;
44985;SDS011;30721;49.380;7.736;2024-02-15T11:56:00;2.65;;;0.70;;
44985;SDS011;30721;49.380;7.736;2024-02-15T11:58:27;1.33;;;0.65;;
44985;SDS011;30721;49.380;7.736;2024-02-15T12:01:07;1.77;;;0.70;;
44985;SDS011;30721;49.380;7.736;2024-02-15T12:03:52;1.75;;;1.00;;
44985;SDS011;30721;49.380;7.736;2024-02-15T12:06:38;1.33;;;0.60;;
44985;SDS011;30721;49.380;7.736;2024-02-15T12:09:22;3.33;;;1.02;;
44985;SDS011;30721;49.380;7.736;2024-02-15T12:12:06;0.98;;;0.88;;
44985;SDS011;30721;49.380;7.736;2024-02-15T12:14:58;2.63;;;0.70;;
44985;SDS011;30721;49.380;7.736;2024-02-15T12:17:42;1.23;;;0.60;;
44985;SDS011;30721;49.380;7.736;2024-02-15T12:20:26;0.90;;;0.70;;
44985;SDS011;30721;49.380;7.736;2024-02-15T12:22:51;2.13;;;0.90;;
44985;SDS011;30721;49.380;7.736;2024-02-15T12:25:18;1.77;;;0.70;;
44985;SDS011;30721;49.380;7.736;2024-02-15T12:27:46;2.60;;;0.70;;
44985;SDS011;30721;49.380;7.736;2024-02-15T12:30:18;0.90;;;0.85;;
44985;SDS011;30721;49.380;7.736;2024-02-15T12:32:48;1.55;;;0.50;;
44985;SDS011;30721;49.380;7.736;2024-02-15T12:35:22;1.58;;;0.75;;
44985;SDS011;30721;49.380;7.736;2024-02-15T12:40:29;0.77;;;0.60;;
44985;SDS011;30721;49.380;7.736;2024-02-15T12:42:55;1.05;;;0.75;;
44985;SDS011;30721;49.380;7.736;2024-02-15T12:45:21;1.95;;;0.77;;
44985;SDS011;30721;49.380;7.736;2024-02-15T12:47:49;1.50;;;0.82;;
44985;SDS011;30721;49.380;7.736;2024-02-15T12:50:16;2.05;;;0.82;;
44985;SDS011;30721;49.380;7.736;2024-02-15T12:52:44;1.90;;;0.77;;
44985;SDS011;30721;49.380;7.736;2024-02-15T12:55:14;1.13;;;0.77;;
44985;SDS011;30721;49.380;7.736;2024-02-15T12:57:43;1.27;;;0.68;;
44985;SDS011;30721;49.380;7.736;2024-02-15T13:00:11;1.33;;;0.90;;
44985;SDS011;30721;49.380;7.736;2024-02-15T13:02:42;1.15;;;0.90;;
44985;SDS011;30721;49.380;7.736;2024-02-15T13:05:13;0.93;;;0.70;;
44985;SDS011;30721;49.380;7.736;2024-02-15T13:07:39;1.25;;;0.60;;
44985;SDS011;30721;49.380;7.736;2024-02-15T13:10:05;1.65;;;0.70;;
44985;SDS011;30721;49.380;7.736;2024-02-15T13:12:34;1.33;;;0.77;;
44985;SDS011;30721;49.380;7.736;2024-02-15T13:15:04;1.98;;;0.80;;
44985;SDS011;30721;49.380;7.736;2024-02-15T13:17:37;1.33;;;0.70;;
44985;SDS011;30721;49.380;7.736;2024-02-15T13:20:03;2.90;;;0.70;;
44985;SDS011;30721;49.380;7.736;2024-02-15T13:22:32;1.80;;;0.80;;
44985;SDS011;30721;49.380;7.736;2024-02-15T13:24:59;3.03;;;0.85;;
44985;SDS011;30721;49.380;7.736;2024-02-15T13:27:25;1.40;;;0.80;;
44985;SDS011;30721;49.380;7.736;2024-02-15T13:29:51;2.67;;;0.95;;
44985;SDS011;30721;49.380;7.736;2024-02-15T13:32:18;1.00;;;0.90;;
44985;SDS011;30721;49.380;7.736;2024-02-15T13:34:46;1.58;;;0.63;;
44985;SDS011;30721;49.380;7.736;2024-02-15T13:37:16;1.05;;;0.80;;
44985;SDS011;30721;49.380;7.736;2024-02-15T13:42:16;1.33;;;1.10;;
44985;SDS011;30721;49.380;7.736;2024-02-15T13:44:45;2.20;;;0.93;;
44985;SDS011;30721;49.380;7.736;2024-02-15T13:47:13;2.33;;;0.80;;
44985;SDS011;30721;49.380;7.736;2024-02-15T13:49:39;2.42;;;1.42;;
44985;SDS011;30721;49.380;7.736;2024-02-15T13:52:05;1.65;;;0.90;;
44985;SDS011;30721;49.380;7.736;2024-02-15T13:54:31;1.80;;;0.80;;
44985;SDS011;30721;49.380;7.736;2024-02-15T13:56:57;3.40;;;0.77;;
44985;SDS011;30721;49.380;7.736;2024-02-15T13:59:23;1.20;;;0.93;;
44985;SDS011;30721;49.380;7.736;2024-02-15T14:01:51;1.60;;;0.90;;
44985;SDS011;30721;49.380;7.736;2024-02-15T14:04:18;1.00;;;0.77;;
44985;SDS011;30721;49.380;7.736;2024-02-15T14:06:44;1.05;;;0.90;;
44985;SDS011;30721;49.380;7.736;2024-02-15T14:09:12;1.75;;;1.00;;
44985;SDS011;30721;49.380;7.736;2024-02-15T14:11:38;1.95;;;1.05;;
44985;SDS011;30721;49.380;7.736;2024-02-15T14:14:04;2.35;;;1.17;;
44985;SDS011;30721;49.380;7.736;2024-02-15T14:16:30;2.10;;;0.80;;
44985;SDS011;30721;49.380;7.736;2024-02-15T14:18:56;1.95;;;1.35;;
44985;SDS011;30721;49.380;7.736;2024-02-15T14:21:21;1.48;;;0.93;;
44985;SDS011;30721;49.380;7.736;2024-02-15T14:23:47;1.65;;;0.98;;
44985;SDS011;30721;49.380;7.736;2024-02-15T14:26:12;1.52;;;1.20;;
44985;SDS011;30721;49.380;7.736;2024-02-15T14:28:37;2.85;;;1.25;;
44985;SDS011;30721;49.380;7.736;2024-02-15T14:31:07;2.05;;;0.70;;
44985;SDS011;30721;49.380;7.736;2024-02-15T14:33:51;3.27;;;1.17;;
44985;SDS011;30721;49.380;7.736;2024-02-15T14:36:17;1.58;;;1.13;;
44985;SDS011;30721;49.380;7.736;2024-02-15T14:38:42;1.40;;;0.77;;
44985;SDS011;30721;49.380;7.736;2024-02-15T14:41:09;1.60;;;0.90;;
44985;SDS011;30721;49.380;7.736;2024-02-15T14:43:36;1.30;;;1.08;;
44985;SDS011;30721;49.380;7.736;2024-02-15T14:46:01;1.20;;;1.00;;
44985;SDS011;30721;49.380;7.736;2024-02-15T14:48:30;1.17;;;0.65;;
44985;SDS011;30721;49.380;7.736;2024-02-15T14:50:56;1.70;;;1.23;;
44985;SDS011;30721;49.380;7.736;2024-02-15T14:53:23;1.80;;;0.93;;
44985;SDS011;30721;49.380;7.736;2024-02-15T14:55:49;1.92;;;0.63;;
44985;SDS011;30721;49.380;7.736;2024-02-15T14:58:15;1.70;;;0.90;;
44985;SDS011;30721;49.380;7.736;2024-02-15T15:00:43;2.00;;;0.82;;
44985;SDS011;30721;49.380;7.736;2024-02-15T15:03:10;1.33;;;0.75;;
44985;SDS011;30721;49.380;7.736;2024-02-15T15:05:38;1.23;;;1.02;;
44985;SDS011;30721;49.380;7.736;2024-02-15T15:08:22;1.15;;;1.05;;
44985;SDS011;30721;49.380;7.736;2024-02-15T15:11:06;1.42;;;0.82;;